Tropical Cyclones
[Index]
Main Index Home Page Stock Weather Photos Extreme Storms Discussion Storm News and Storm Chasing Reports Tropical Cyclones / Hurricanes / Typhoons Weather Data and Links Wild Fires / Bushfires Weather Observation Techniques Weather Picture Catalogue Tornado Pictures and Reports Stock Video Footage and DVDs for sale
Season 2013-2014 Tropical Cyclone MIKE Track Map
Season 2013-2014 Summaries (Operational Data): [AU] [SIO] [SPAC] [SH]
<<- Previous TC | 2013-2014 Season | Next TC ->>

click for intensity scale information  Lat/long Grid: Show Hide

 Date Labels: Show Hide

Operational Tropical Cyclone Data : JTWC Advisories

Name: MIKE
Number: 1420

14 Mar 2014 00:00 UTC to 20 Mar 2014 12:00 UTC

    date/time    lat    long     hPa   cat  kts
2014-03-14 00   17.0   164.5W   1010         15          
2014-03-14 06   17.0   164.0W   1010         15          
2014-03-14 12   18.4   162.8W   1010         15          
2014-03-14 18   18.5   164.4W   1009         15          
2014-03-15 00   15.1   160.8W   1010         15          
2014-03-15 06   14.3   159.6W   1010         15          
2014-03-15 12   12.9   158.4W   1006         20          
2014-03-15 18   14.5   160.2W   1007         20          
2014-03-16 00   11.9   167.0W   1007         20          
2014-03-16 06   12.6   165.2W   1007         20          
2014-03-16 12   11.5   164.3W   1007         20          
2014-03-16 18   12.1   163.6W   1007         20          
2014-03-17 00   10.3   166.3W   1007         20          
2014-03-17 06   11.3   165.7W   1007         20          
2014-03-17 12   12.0   165.0W   1007         20          
2014-03-17 18   12.6   164.4W   1007         20          
2014-03-18 00   13.5   163.7W   1007         20          
2014-03-18 06   14.3   163.2W   1007         20          
2014-03-18 12   14.9   162.7W   1007         20          
2014-03-18 18   16.3   161.7W   1004         25          
2014-03-19 00   19.3   160.4W    997         30          
2014-03-19 06   20.5   159.3W    996    1    35          
2014-03-19 12   22.3   158.4W    996    1    35          
2014-03-19 18   24.2   158.4W    996    1    35          
2014-03-20 00   25.4   158.9W    996    1    35          
2014-03-20 06   26.4   159.5W    996    1    35          
2014-03-20 12   27.2   160.0W    996    1    35          
Winds are 10-min average.

Tropical cyclone tracks developed by Michael Bath using operational warnings and advisories and Google Maps.


[Australian Severe Weather index] [Copyright Notice] [Email Contacts] [Search This Site] [Privacy Policy]
Document: tropical_cyclone_mike.htm Updated: 2 May 2017